createdAt,value
2018-12-14T00:00:40.023Z,56.99
2018-12-14T00:03:07.605Z,56.96
2018-12-14T00:05:35.163Z,57.25
2018-12-14T00:08:02.880Z,57.27
2018-12-14T00:10:30.494Z,57.33
2018-12-14T00:12:58.084Z,57.40
2018-12-14T00:15:25.816Z,57.11
2018-12-14T00:17:53.361Z,57.13
2018-12-14T00:20:20.986Z,57.52
2018-12-14T00:22:48.641Z,57.31
2018-12-14T00:25:16.205Z,57.58
2018-12-14T00:27:43.743Z,57.32
2018-12-14T00:30:11.329Z,57.20
2018-12-14T00:32:39.060Z,57.16
2018-12-14T00:35:06.625Z,57.27
2018-12-14T00:37:34.185Z,57.68
2018-12-14T00:40:01.796Z,57.37
2018-12-14T00:42:29.437Z,57.33
2018-12-14T00:44:57.062Z,57.72
2018-12-14T00:47:24.647Z,57.77
2018-12-14T00:49:52.300Z,57.89
2018-12-14T00:52:19.872Z,57.78
2018-12-14T00:54:47.416Z,58.00
2018-12-14T00:57:15.051Z,57.98
2018-12-14T00:59:42.634Z,57.84
2018-12-14T01:02:15.814Z,57.49
2018-12-14T01:04:43.381Z,57.85
2018-12-14T01:07:10.966Z,57.72
2018-12-14T01:09:38.564Z,57.94
2018-12-14T01:12:06.187Z,57.97
2018-12-14T01:14:33.772Z,57.70
2018-12-14T01:17:01.377Z,57.86
2018-12-14T01:19:28.964Z,57.97
2018-12-14T01:21:56.539Z,58.11
2018-12-14T01:24:24.188Z,58.20
2018-12-14T01:26:51.784Z,58.08
2018-12-14T01:29:19.394Z,58.52
2018-12-14T01:31:46.954Z,58.91
2018-12-14T01:34:14.612Z,58.76
2018-12-14T01:36:42.201Z,59.06
2018-12-14T01:39:09.824Z,59.19
2018-12-14T01:41:37.481Z,59.38
2018-12-14T01:44:05.020Z,59.23
2018-12-14T01:46:32.587Z,59.47
2018-12-14T01:49:00.212Z,59.41
2018-12-14T01:51:27.847Z,59.32
2018-12-14T01:53:55.446Z,59.48
2018-12-14T01:56:23.038Z,59.29
2018-12-14T01:58:50.634Z,59.66
2018-12-14T02:01:18.278Z,59.99
2018-12-14T02:03:45.982Z,60.08
2018-12-14T02:06:13.596Z,60.36
2018-12-14T02:08:41.194Z,60.23
2018-12-14T02:11:08.816Z,60.38
2018-12-14T02:13:37.308Z,60.37
2018-12-14T02:16:04.909Z,60.29
2018-12-14T02:18:32.533Z,60.21
2018-12-14T02:21:00.104Z,60.20
2018-12-14T02:23:27.710Z,60.28
2018-12-14T02:25:55.372Z,60.36
2018-12-14T02:28:23.148Z,60.73
2018-12-14T02:30:50.702Z,60.33
2018-12-14T02:33:18.293Z,60.29
2018-12-14T02:35:45.887Z,60.36
2018-12-14T02:38:13.497Z,60.30
2018-12-14T02:40:41.145Z,59.88
2018-12-14T02:43:08.711Z,59.93
2018-12-14T02:45:36.344Z,60.01
2018-12-14T02:48:03.968Z,60.03
2018-12-14T02:50:31.540Z,60.04
2018-12-14T02:52:59.153Z,60.17
2018-12-14T02:55:26.730Z,60.20
2018-12-14T02:57:54.326Z,59.93
2018-12-14T03:00:21.916Z,60.16
2018-12-14T03:02:49.643Z,60.05
2018-12-14T03:05:17.270Z,60.22
2018-12-14T03:07:44.891Z,59.97
2018-12-14T03:10:12.471Z,60.25
2018-12-14T03:12:40.074Z,60.10
2018-12-14T03:15:07.680Z,60.05
2018-12-14T03:17:35.501Z,59.98
2018-12-14T03:20:03.187Z,59.78
2018-12-14T03:22:31.060Z,60.25
2018-12-14T03:24:58.681Z,60.53
2018-12-14T03:27:26.370Z,60.58
2018-12-14T03:29:53.983Z,60.36
2018-12-14T03:32:21.560Z,60.54
2018-12-14T03:34:49.167Z,60.51
2018-12-14T03:37:16.795Z,60.42
2018-12-14T03:39:44.354Z,60.35
2018-12-14T03:42:11.927Z,60.43
2018-12-14T03:44:39.658Z,60.72
2018-12-14T03:47:07.219Z,60.39
2018-12-14T03:49:34.826Z,60.53
2018-12-14T03:52:02.429Z,60.45
2018-12-14T03:54:30.092Z,59.97
2018-12-14T03:56:57.704Z,60.27
2018-12-14T03:59:25.306Z,60.41
2018-12-14T04:01:52.936Z,60.05
2018-12-14T04:04:20.485Z,60.28
2018-12-14T04:06:48.187Z,60.19
2018-12-14T04:09:15.776Z,60.34
2018-12-14T04:11:43.343Z,60.53
2018-12-14T04:14:10.954Z,60.31
2018-12-14T04:16:38.675Z,60.07
2018-12-14T04:19:06.283Z,60.40
2018-12-14T04:21:33.823Z,60.12
2018-12-14T04:24:01.437Z,59.80
2018-12-14T04:26:29.017Z,60.20
2018-12-14T04:28:56.610Z,59.99
2018-12-14T04:31:24.223Z,59.77
2018-12-14T04:33:51.835Z,59.53
2018-12-14T04:36:19.428Z,59.42
2018-12-14T04:38:47.126Z,59.83
2018-12-14T04:41:14.717Z,59.79
2018-12-14T04:43:42.264Z,59.60
2018-12-14T04:46:09.977Z,59.45
2018-12-14T04:48:37.552Z,59.20
2018-12-14T04:51:05.122Z,58.95
2018-12-14T04:53:32.682Z,58.94
2018-12-14T04:56:00.286Z,58.80
2018-12-14T04:58:27.940Z,58.75
2018-12-14T05:00:55.576Z,58.68
2018-12-14T05:03:23.220Z,58.79
2018-12-14T05:05:50.829Z,58.34
2018-12-14T05:08:18.415Z,58.39
2018-12-14T05:10:46.030Z,58.32
2018-12-14T05:13:13.752Z,58.33
2018-12-14T05:15:41.326Z,58.66
2018-12-14T05:18:08.906Z,59.01
2018-12-14T05:20:36.508Z,58.77
2018-12-14T05:23:04.118Z,58.73
2018-12-14T05:25:31.800Z,60.18
2018-12-14T05:27:59.415Z,60.11
2018-12-14T05:30:27.050Z,60.26
2018-12-14T05:32:54.587Z,60.25
2018-12-14T05:35:22.177Z,59.26
2018-12-14T05:37:49.733Z,59.20
2018-12-14T05:40:17.557Z,58.93
2018-12-14T05:42:45.304Z,58.76
2018-12-14T05:45:12.860Z,58.37
2018-12-14T05:47:40.618Z,58.31
2018-12-14T05:50:08.415Z,58.16
2018-12-14T05:52:36.041Z,58.11
2018-12-14T05:55:04.254Z,57.46
2018-12-14T05:57:31.852Z,57.48
2018-12-14T05:59:59.427Z,57.29
2018-12-14T06:02:27.533Z,56.90
2018-12-14T06:04:55.241Z,56.98
2018-12-14T06:10:23.465Z,56.96
2018-12-14T06:12:52.251Z,56.96
2018-12-14T06:15:20.734Z,57.01
2018-12-14T06:17:49.199Z,56.73
2018-12-14T06:20:16.814Z,56.91
2018-12-14T06:22:44.447Z,56.94
2018-12-14T06:25:12.063Z,57.12
2018-12-14T06:27:39.699Z,57.09
2018-12-14T06:30:07.483Z,56.78
2018-12-14T06:32:35.584Z,56.82
2018-12-14T06:35:03.404Z,56.99
2018-12-14T06:37:31.340Z,57.05
2018-12-14T06:39:59.009Z,57.17
2018-12-14T06:42:26.680Z,57.06
2018-12-14T06:44:54.751Z,57.16
2018-12-14T06:47:22.893Z,57.05
2018-12-14T06:49:50.531Z,57.61
2018-12-14T06:52:18.161Z,57.87
2018-12-14T06:54:45.776Z,58.07
2018-12-14T06:57:13.346Z,57.95
2018-12-14T06:59:41.439Z,57.81
2018-12-14T07:02:09.983Z,57.88
2018-12-14T07:04:37.764Z,57.92
2018-12-14T07:07:05.400Z,58.09
2018-12-14T07:09:33.663Z,58.06
2018-12-14T07:12:01.300Z,57.93
2018-12-14T07:14:28.889Z,57.67
2018-12-14T07:16:56.465Z,57.97
2018-12-14T07:19:24.102Z,57.59
2018-12-14T07:21:51.740Z,57.80
2018-12-14T07:24:19.335Z,57.94
2018-12-14T07:26:47.248Z,58.00
2018-12-14T07:29:14.821Z,57.38
2018-12-14T07:31:42.419Z,57.38
2018-12-14T07:34:10.005Z,56.95
2018-12-14T07:36:37.527Z,57.20
2018-12-14T07:39:06.399Z,57.17
2018-12-14T07:41:34.166Z,56.69
2018-12-14T07:44:01.835Z,56.83
2018-12-14T07:46:29.372Z,56.92
2018-12-14T07:48:56.943Z,57.13
2018-12-14T07:51:25.066Z,56.73
2018-12-14T07:53:52.874Z,56.81
2018-12-14T07:56:20.467Z,56.62
2018-12-14T07:58:48.442Z,56.76
2018-12-14T08:01:16.252Z,56.80
2018-12-14T08:03:43.885Z,56.83
2018-12-14T08:06:11.567Z,56.43
2018-12-14T08:08:39.113Z,56.50
2018-12-14T08:11:06.706Z,56.39
2018-12-14T08:13:34.937Z,56.40
2018-12-14T08:16:02.586Z,56.26
2018-12-14T08:18:30.153Z,56.49
2018-12-14T08:20:57.749Z,56.38
2018-12-14T08:23:25.349Z,56.31
2018-12-14T08:25:52.911Z,56.43
2018-12-14T08:28:20.479Z,56.08
2018-12-14T08:30:48.191Z,56.30
2018-12-14T08:33:15.899Z,56.15
2018-12-14T08:35:43.549Z,56.22
2018-12-14T08:38:11.156Z,56.04
2018-12-14T08:40:38.690Z,56.04
2018-12-14T08:43:06.268Z,55.99
2018-12-14T08:45:33.857Z,55.99
2018-12-14T08:48:01.853Z,55.85
2018-12-14T08:50:29.445Z,55.88
2018-12-14T08:52:57.014Z,55.95
2018-12-14T08:55:24.923Z,55.72
2018-12-14T08:57:52.573Z,55.42
2018-12-14T09:00:20.215Z,55.63
2018-12-14T09:02:47.830Z,55.49
2018-12-14T09:05:15.473Z,55.55
2018-12-14T09:07:43.098Z,55.41
2018-12-14T09:10:10.716Z,55.44
2018-12-14T09:12:38.267Z,55.44
2018-12-14T09:15:05.887Z,55.56
2018-12-14T09:17:33.529Z,55.50
2018-12-14T09:20:01.570Z,55.38
2018-12-14T09:22:29.155Z,55.16
2018-12-14T09:24:56.764Z,55.17
2018-12-14T09:27:24.418Z,55.22
2018-12-14T09:29:51.982Z,55.43
2018-12-14T09:32:19.595Z,55.64
2018-12-14T09:34:47.253Z,55.86
2018-12-14T09:37:14.881Z,55.80
2018-12-14T09:39:42.509Z,55.65
2018-12-14T09:42:10.113Z,55.46
2018-12-14T09:44:37.654Z,55.16
2018-12-14T09:47:05.230Z,55.30
2018-12-14T09:49:32.838Z,55.25
2018-12-14T09:52:00.435Z,55.12
2018-12-14T09:54:28.133Z,54.86
2018-12-14T09:56:55.697Z,55.02
2018-12-14T09:59:23.271Z,55.07
2018-12-14T10:01:50.860Z,55.13
2018-12-14T10:04:18.440Z,55.05
2018-12-14T10:06:46.086Z,54.93
2018-12-14T10:09:13.648Z,54.96
2018-12-14T10:11:41.228Z,54.76
2018-12-14T10:14:08.871Z,54.86
2018-12-14T10:16:36.439Z,54.84
2018-12-14T10:19:04.398Z,54.85
2018-12-14T10:21:31.956Z,54.72
2018-12-14T10:23:59.542Z,55.08
2018-12-14T10:26:27.153Z,54.78
2018-12-14T10:28:54.699Z,54.98
2018-12-14T10:31:22.287Z,55.02
2018-12-14T10:33:49.838Z,54.45
2018-12-14T10:36:17.794Z,54.74
2018-12-14T10:38:45.308Z,54.65
2018-12-14T10:41:12.892Z,54.77
2018-12-14T10:43:40.475Z,54.68
2018-12-14T10:46:08.056Z,54.67
2018-12-14T10:48:35.873Z,54.78
2018-12-14T10:51:03.423Z,54.62
2018-12-14T10:53:30.988Z,54.75
2018-12-14T10:55:58.597Z,54.70
2018-12-14T10:58:26.489Z,54.40
2018-12-14T11:00:59.543Z,54.32
2018-12-14T11:03:27.263Z,54.45
2018-12-14T11:05:54.846Z,54.35
2018-12-14T11:08:22.436Z,54.62
2018-12-14T11:10:50.035Z,54.20
2018-12-14T11:13:17.591Z,54.22
2018-12-14T11:15:45.135Z,54.35
2018-12-14T11:18:12.735Z,54.21
2018-12-14T11:20:40.266Z,54.19
2018-12-14T11:23:07.971Z,54.37
2018-12-14T11:25:35.567Z,54.09
2018-12-14T11:28:03.147Z,54.30
2018-12-14T11:30:30.767Z,54.01
2018-12-14T11:32:58.331Z,54.05
2018-12-14T11:35:25.923Z,53.97
2018-12-14T11:37:53.493Z,54.12
2018-12-14T11:40:21.116Z,53.99
2018-12-14T11:42:48.698Z,54.29
2018-12-14T11:45:16.294Z,54.15
2018-12-14T11:47:43.865Z,54.25
2018-12-14T11:50:11.804Z,54.19
2018-12-14T11:52:39.495Z,54.52
2018-12-14T11:55:08.818Z,54.31
2018-12-14T11:57:36.732Z,54.30
2018-12-14T12:00:06.516Z,54.13
2018-12-14T12:02:34.066Z,54.38
2018-12-14T12:05:01.643Z,54.37
2018-12-14T12:07:29.236Z,54.35
2018-12-14T12:09:56.830Z,54.15
2018-12-14T12:12:24.706Z,54.12
2018-12-14T12:14:52.403Z,54.43
2018-12-14T12:17:20.107Z,54.22
2018-12-14T12:19:47.734Z,53.88
2018-12-14T12:22:15.351Z,54.06
2018-12-14T12:24:42.890Z,54.24
2018-12-14T12:27:10.435Z,53.95
2018-12-14T12:29:38.166Z,53.93
2018-12-14T12:32:05.738Z,53.97
2018-12-14T12:34:33.312Z,54.20
2018-12-14T12:37:00.886Z,54.16
2018-12-14T12:39:28.496Z,54.40
2018-12-14T12:41:56.082Z,54.18
2018-12-14T12:44:23.776Z,54.14
2018-12-14T12:46:51.372Z,54.07
2018-12-14T12:49:18.956Z,53.88
2018-12-14T12:51:46.603Z,54.04
2018-12-14T12:54:14.169Z,54.10
2018-12-14T12:56:41.797Z,54.07
2018-12-14T12:59:09.386Z,54.30
2018-12-14T13:01:37.015Z,54.30
2018-12-14T13:04:04.687Z,54.16
2018-12-14T13:06:32.307Z,54.08
2018-12-14T13:08:59.951Z,54.01
2018-12-14T13:11:27.580Z,53.71
2018-12-14T13:13:55.140Z,53.89
2018-12-14T13:16:22.686Z,53.94
2018-12-14T13:18:50.319Z,53.94
2018-12-14T13:21:17.917Z,53.75
2018-12-14T13:23:45.552Z,53.89
2018-12-14T13:26:13.130Z,53.87
2018-12-14T13:28:40.839Z,54.07
2018-12-14T13:31:08.385Z,53.98
2018-12-14T13:33:36.058Z,54.03
2018-12-14T13:36:03.691Z,53.79
2018-12-14T13:38:31.224Z,53.91
2018-12-14T13:40:58.824Z,54.01
2018-12-14T13:43:26.422Z,53.90
2018-12-14T13:45:54.036Z,54.17
2018-12-14T13:48:21.655Z,54.00
2018-12-14T13:50:49.398Z,54.12
2018-12-14T13:53:16.965Z,54.13
2018-12-14T13:55:44.503Z,54.13
2018-12-14T13:58:12.237Z,54.19
2018-12-14T14:00:39.812Z,53.82
2018-12-14T14:03:07.373Z,53.87
2018-12-14T14:05:34.944Z,53.66
2018-12-14T14:08:02.544Z,53.74
2018-12-14T14:10:30.061Z,54.02
2018-12-14T14:12:57.675Z,53.72
2018-12-14T14:15:25.216Z,53.77
2018-12-14T14:17:52.786Z,53.74
2018-12-14T14:20:20.428Z,53.71
2018-12-14T14:22:48.217Z,53.61
2018-12-14T14:25:17.571Z,53.80
2018-12-14T14:27:45.447Z,53.82
2018-12-14T14:30:13.027Z,53.61
2018-12-14T14:32:40.678Z,53.67
2018-12-14T14:35:08.436Z,53.78
2018-12-14T14:37:35.973Z,53.59
2018-12-14T14:40:03.651Z,53.73
2018-12-14T14:42:31.209Z,53.79
2018-12-14T14:44:59.922Z,53.60
2018-12-14T14:47:27.688Z,53.72
2018-12-14T14:49:55.218Z,53.79
2018-12-14T14:52:22.766Z,53.72
2018-12-14T14:54:50.656Z,53.87
2018-12-14T14:57:18.277Z,53.69
2018-12-14T14:59:45.852Z,53.90
2018-12-14T15:02:13.429Z,53.66
2018-12-14T15:04:40.956Z,53.78
2018-12-14T15:07:08.704Z,53.68
2018-12-14T15:09:36.288Z,53.78
2018-12-14T15:12:03.819Z,53.64
2018-12-14T15:14:31.436Z,53.90
2018-12-14T15:16:59.040Z,53.88
2018-12-14T15:19:26.637Z,53.87
2018-12-14T15:21:54.208Z,53.85
2018-12-14T15:24:21.732Z,53.74
2018-12-14T15:26:49.324Z,53.78
2018-12-14T15:29:16.903Z,53.70
2018-12-14T15:31:45.162Z,53.68
2018-12-14T15:34:14.416Z,53.66
2018-12-14T15:36:42.318Z,53.69
2018-12-14T15:39:09.894Z,53.57
2018-12-14T15:41:37.448Z,53.58
2018-12-14T15:44:05.009Z,53.45
2018-12-14T15:46:32.628Z,53.60
2018-12-14T15:49:00.203Z,53.67
2018-12-14T15:51:27.923Z,53.50
2018-12-14T15:53:55.491Z,53.80
2018-12-14T15:56:23.066Z,53.80
2018-12-14T15:58:50.636Z,53.74
2018-12-14T16:01:18.212Z,53.77
2018-12-14T16:03:45.832Z,53.84
2018-12-14T16:06:13.355Z,53.96
2018-12-14T16:08:40.915Z,53.87
2018-12-14T16:11:08.463Z,54.05
2018-12-14T16:13:36.002Z,53.76
2018-12-14T16:16:03.639Z,53.98
2018-12-14T16:18:31.393Z,53.90
2018-12-14T16:20:58.983Z,53.73
2018-12-14T16:23:26.540Z,53.91
2018-12-14T16:25:54.092Z,53.58
2018-12-14T16:28:21.663Z,53.71
2018-12-14T16:30:49.231Z,53.61
2018-12-14T16:33:16.847Z,53.90
2018-12-14T16:35:44.433Z,53.67
2018-12-14T16:38:12.000Z,53.65
2018-12-14T16:40:39.603Z,53.84
2018-12-14T16:43:07.233Z,53.78
2018-12-14T16:45:34.769Z,53.76
2018-12-14T16:48:02.297Z,53.57
2018-12-14T16:50:29.909Z,53.85
2018-12-14T16:52:57.503Z,53.58
2018-12-14T16:55:25.089Z,53.68
2018-12-14T16:57:52.944Z,53.49
2018-12-14T17:00:20.487Z,53.69
2018-12-14T17:02:48.049Z,53.53
2018-12-14T17:05:15.764Z,53.66
2018-12-14T17:07:43.515Z,53.65
2018-12-14T17:10:11.104Z,53.37
2018-12-14T17:12:38.728Z,53.61
2018-12-14T17:15:06.828Z,53.58
2018-12-14T17:17:34.419Z,53.68
2018-12-14T17:20:01.974Z,53.56
2018-12-14T17:22:29.657Z,53.19
2018-12-14T17:24:57.285Z,53.64
2018-12-14T17:27:24.811Z,53.60
2018-12-14T17:29:52.381Z,53.69
2018-12-14T17:32:19.931Z,53.62
2018-12-14T17:34:47.641Z,53.80
2018-12-14T17:37:15.248Z,53.82
2018-12-14T17:39:42.814Z,53.60
2018-12-14T17:42:10.405Z,53.72
2018-12-14T17:44:37.942Z,53.59
2018-12-14T17:47:05.643Z,53.69
2018-12-14T17:49:33.228Z,53.66
2018-12-14T17:52:00.852Z,53.60
2018-12-14T17:54:28.444Z,53.75
2018-12-14T17:57:02.838Z,53.68
2018-12-14T17:59:30.398Z,53.65
2018-12-14T18:01:57.964Z,53.65
2018-12-14T18:04:25.557Z,53.61
2018-12-14T18:06:53.156Z,53.72
2018-12-14T18:09:20.771Z,53.69
2018-12-14T18:11:48.361Z,53.83
2018-12-14T18:14:15.904Z,53.68
2018-12-14T18:16:43.482Z,53.44
2018-12-14T18:19:11.529Z,53.37
2018-12-14T18:21:39.169Z,53.58
2018-12-14T18:24:06.723Z,53.38
2018-12-14T18:26:34.333Z,53.42
2018-12-14T18:29:01.901Z,53.49
2018-12-14T18:31:29.493Z,53.28
2018-12-14T18:33:57.076Z,53.39
2018-12-14T18:36:24.653Z,53.30
2018-12-14T18:38:52.390Z,53.62
2018-12-14T18:41:19.984Z,53.60
2018-12-14T18:43:47.584Z,53.33
2018-12-14T18:46:15.180Z,53.27
2018-12-14T18:48:42.744Z,53.50
2018-12-14T18:51:10.470Z,53.55
2018-12-14T18:53:38.204Z,53.41
2018-12-14T18:56:06.007Z,53.42
2018-12-14T18:58:33.782Z,53.41
2018-12-14T19:01:01.413Z,53.51
2018-12-14T19:03:28.996Z,53.45
2018-12-14T19:05:56.604Z,53.31
2018-12-14T19:08:24.319Z,53.42
2018-12-14T19:10:51.902Z,53.35
2018-12-14T19:13:19.491Z,53.59
2018-12-14T19:15:47.091Z,53.39
2018-12-14T19:18:14.710Z,53.50
2018-12-14T19:20:42.352Z,53.56
2018-12-14T19:23:09.871Z,53.54
2018-12-14T19:25:37.481Z,53.46
2018-12-14T19:28:05.184Z,53.49
2018-12-14T19:30:32.745Z,53.48
2018-12-14T19:33:00.311Z,53.47
2018-12-14T19:35:28.026Z,53.36
2018-12-14T19:37:55.552Z,53.42
2018-12-14T19:40:23.123Z,53.38
2018-12-14T19:42:50.806Z,53.46
2018-12-14T19:45:18.375Z,53.25
2018-12-14T19:47:45.996Z,53.28
2018-12-14T19:50:13.663Z,53.22
2018-12-14T19:52:41.204Z,53.26
2018-12-14T19:55:08.766Z,53.29
2018-12-14T19:57:36.445Z,53.13
2018-12-14T20:00:05.548Z,53.07
2018-12-14T20:02:33.166Z,53.27
2018-12-14T20:05:00.740Z,53.29
2018-12-14T20:07:28.288Z,53.32
2018-12-14T20:09:55.960Z,53.25
2018-12-14T20:12:23.577Z,53.10
2018-12-14T20:14:51.132Z,53.27
2018-12-14T20:17:18.709Z,53.28
2018-12-14T20:19:46.297Z,53.22
2018-12-14T20:22:13.863Z,53.45
2018-12-14T20:24:41.487Z,53.19
2018-12-14T20:27:09.054Z,53.39
2018-12-14T20:29:36.735Z,53.09
2018-12-14T20:32:04.284Z,53.41
2018-12-14T20:34:31.817Z,53.57
2018-12-14T20:36:59.409Z,53.56
2018-12-14T20:39:26.931Z,53.39
2018-12-14T20:41:54.520Z,53.53
2018-12-14T20:44:22.229Z,53.44
2018-12-14T20:46:49.751Z,53.46
2018-12-14T20:49:17.302Z,53.50
2018-12-14T20:51:44.893Z,53.49
2018-12-14T20:54:12.499Z,53.28
2018-12-14T20:56:40.077Z,53.51
2018-12-14T20:59:07.684Z,53.39
2018-12-14T21:01:35.230Z,53.49
2018-12-14T21:04:02.817Z,53.37
2018-12-14T21:06:30.404Z,53.51
2018-12-14T21:08:57.988Z,53.51
2018-12-14T21:11:25.776Z,53.46
2018-12-14T21:13:53.287Z,53.43
2018-12-14T21:16:25.925Z,53.36
2018-12-14T21:18:50.477Z,53.43
2018-12-14T21:21:18.018Z,53.64
2018-12-14T21:23:45.607Z,53.46
2018-12-14T21:26:13.211Z,53.71
2018-12-14T21:28:40.775Z,53.36
2018-12-14T21:31:08.346Z,53.51
2018-12-14T21:33:35.902Z,53.42
2018-12-14T21:36:03.479Z,53.26
2018-12-14T21:38:31.191Z,53.46
2018-12-14T21:40:58.750Z,53.38
2018-12-14T21:43:26.325Z,53.22
2018-12-14T21:45:53.882Z,53.36
2018-12-14T21:48:21.531Z,53.48
2018-12-14T21:50:49.094Z,53.51
2018-12-14T21:53:16.806Z,53.47
2018-12-14T21:55:44.440Z,53.43
2018-12-14T21:58:12.049Z,53.42
2018-12-14T22:00:39.596Z,53.50
2018-12-14T22:03:07.180Z,53.53
2018-12-14T22:05:34.924Z,53.52
2018-12-14T22:08:02.490Z,53.57
2018-12-14T22:10:30.061Z,53.38
2018-12-14T22:12:57.636Z,53.36
2018-12-14T22:15:25.240Z,53.46
2018-12-14T22:17:52.820Z,53.38
2018-12-14T22:20:20.502Z,53.65
2018-12-14T22:22:48.083Z,53.42
2018-12-14T22:25:15.649Z,53.46
2018-12-14T22:27:43.358Z,53.25
2018-12-14T22:30:11.117Z,53.24
2018-12-14T22:32:38.857Z,53.34
2018-12-14T22:35:06.628Z,53.22
2018-12-14T22:37:34.334Z,53.21
2018-12-14T22:40:02.065Z,53.39
2018-12-14T22:42:29.776Z,53.38
2018-12-14T22:44:57.466Z,53.40
2018-12-14T22:47:25.212Z,53.19
2018-12-14T22:49:52.968Z,53.37
2018-12-14T22:52:20.729Z,53.42
2018-12-14T22:54:48.461Z,53.40
2018-12-14T22:57:16.187Z,53.33
2018-12-14T22:59:43.974Z,53.31
2018-12-14T23:02:12.450Z,53.33
2018-12-14T23:04:40.137Z,53.32
2018-12-14T23:07:07.846Z,53.16
2018-12-14T23:09:35.717Z,53.14
2018-12-14T23:12:03.433Z,53.31
2018-12-14T23:14:31.184Z,53.35
2018-12-14T23:16:58.906Z,53.12
2018-12-14T23:19:26.611Z,53.17
2018-12-14T23:21:54.484Z,53.50
2018-12-14T23:24:22.200Z,53.37
2018-12-14T23:26:49.755Z,53.39
2018-12-14T23:29:17.415Z,53.37
2018-12-14T23:31:45.108Z,53.29
2018-12-14T23:34:12.640Z,53.28
2018-12-14T23:36:40.228Z,53.35
2018-12-14T23:39:07.878Z,53.29
2018-12-14T23:41:35.455Z,53.38
2018-12-14T23:44:03.225Z,53.37
2018-12-14T23:46:30.834Z,53.33
2018-12-14T23:48:58.363Z,53.34
2018-12-14T23:51:25.928Z,53.17
2018-12-14T23:53:53.470Z,53.13
2018-12-14T23:56:21.065Z,53.21
2018-12-14T23:58:48.668Z,53.31
